createdAt,value
2019-03-25T00:00:31.190Z,1.10
2019-03-25T00:02:59.693Z,1.00
2019-03-25T00:05:28.164Z,1.10
2019-03-25T00:07:56.674Z,1.00
2019-03-25T00:10:25.192Z,1.00
2019-03-25T00:12:53.630Z,1.00
2019-03-25T00:15:22.086Z,0.90
2019-03-25T00:17:50.514Z,0.90
2019-03-25T00:20:18.995Z,0.90
2019-03-25T00:22:47.437Z,0.80
2019-03-25T00:25:15.898Z,0.80
2019-03-25T00:27:44.334Z,0.70
2019-03-25T00:30:12.928Z,0.70
2019-03-25T00:32:41.387Z,0.70
2019-03-25T00:35:09.955Z,0.80
2019-03-25T00:37:38.421Z,0.90
2019-03-25T00:40:07.159Z,0.90
2019-03-25T00:42:35.609Z,0.90
2019-03-25T00:45:05.408Z,1.00
2019-03-25T00:47:33.876Z,1.00
2019-03-25T00:50:02.417Z,1.10
2019-03-25T00:52:30.910Z,1.10
2019-03-25T00:54:59.354Z,1.20
2019-03-25T00:57:27.819Z,1.20
2019-03-25T00:59:56.247Z,1.20
2019-03-25T01:02:24.968Z,1.30
2019-03-25T01:04:53.409Z,1.30
2019-03-25T01:07:21.863Z,1.30
2019-03-25T01:09:50.297Z,1.30
2019-03-25T01:12:18.763Z,1.40
2019-03-25T01:14:47.207Z,1.30
2019-03-25T01:17:15.655Z,1.30
2019-03-25T01:19:44.099Z,1.30
2019-03-25T01:22:12.555Z,1.30
2019-03-25T01:24:40.990Z,1.40
2019-03-25T01:27:09.459Z,1.40
2019-03-25T01:29:37.907Z,1.40
2019-03-25T01:32:06.363Z,1.50
2019-03-25T01:34:34.853Z,1.50
2019-03-25T01:37:03.295Z,1.50
2019-03-25T01:39:31.757Z,1.60
2019-03-25T01:42:00.275Z,1.60
2019-03-25T01:44:28.710Z,1.70
2019-03-25T01:46:57.147Z,1.70
2019-03-25T01:49:25.674Z,1.70
2019-03-25T01:51:54.189Z,1.70
2019-03-25T01:54:22.641Z,1.70
2019-03-25T01:56:51.072Z,1.70
2019-03-25T01:59:19.522Z,1.70
2019-03-25T02:01:47.955Z,1.70
2019-03-25T02:04:16.425Z,1.80
2019-03-25T02:06:44.853Z,1.80
2019-03-25T02:09:13.314Z,1.80
2019-03-25T02:11:41.751Z,1.80
2019-03-25T02:14:10.187Z,1.80
2019-03-25T02:16:38.635Z,1.80
2019-03-25T02:19:07.095Z,1.80
2019-03-25T02:21:35.584Z,1.80
2019-03-25T02:24:04.051Z,1.80
2019-03-25T02:26:32.554Z,1.70
2019-03-25T02:29:01.014Z,1.70
2019-03-25T02:31:29.456Z,1.70
2019-03-25T02:33:57.892Z,1.70
2019-03-25T02:36:26.389Z,1.80
2019-03-25T02:38:54.828Z,1.80
2019-03-25T02:41:23.285Z,1.80
2019-03-25T02:43:51.808Z,1.80
2019-03-25T02:46:20.244Z,1.80
2019-03-25T02:48:48.693Z,1.90
2019-03-25T02:51:17.136Z,1.90
2019-03-25T02:53:45.586Z,1.90
2019-03-25T02:56:14.045Z,1.90
2019-03-25T02:58:42.483Z,1.90
2019-03-25T03:01:10.943Z,1.90
2019-03-25T03:03:39.371Z,1.90
2019-03-25T03:06:07.827Z,1.90
2019-03-25T03:08:36.310Z,1.80
2019-03-25T03:11:05.018Z,1.70
2019-03-25T03:13:33.455Z,1.60
2019-03-25T03:16:01.896Z,1.60
2019-03-25T03:18:30.323Z,1.50
2019-03-25T03:20:58.761Z,1.50
2019-03-25T03:23:27.207Z,1.50
2019-03-25T03:25:58.008Z,1.50
2019-03-25T03:28:25.915Z,1.50
2019-03-25T03:30:54.404Z,1.50
2019-03-25T03:33:22.873Z,1.50
2019-03-25T03:35:51.386Z,1.40
2019-03-25T03:38:19.821Z,1.30
2019-03-25T03:40:48.331Z,1.30
2019-03-25T03:43:16.801Z,1.30
2019-03-25T03:45:45.298Z,1.30
2019-03-25T03:48:13.763Z,1.30
2019-03-25T03:50:42.468Z,1.30
2019-03-25T03:53:11.250Z,1.30
2019-03-25T03:55:39.920Z,1.30
2019-03-25T03:58:08.470Z,1.40
2019-03-25T04:00:37.133Z,1.30
2019-03-25T04:03:05.630Z,1.30
2019-03-25T04:05:34.142Z,1.30
2019-03-25T04:08:02.581Z,1.30
2019-03-25T04:10:31.029Z,1.40
2019-03-25T04:12:59.530Z,1.40
2019-03-25T04:15:29.674Z,1.40
2019-03-25T04:17:58.590Z,1.40
2019-03-25T04:20:27.035Z,1.50
2019-03-25T04:22:55.635Z,1.50
2019-03-25T04:25:24.108Z,1.50
2019-03-25T04:27:52.615Z,1.50
2019-03-25T04:30:21.156Z,1.50
2019-03-25T04:32:49.604Z,1.50
2019-03-25T04:35:18.143Z,1.60
2019-03-25T04:37:46.583Z,1.60
2019-03-25T04:40:15.097Z,1.60
2019-03-25T04:42:43.551Z,1.60
2019-03-25T04:45:12.136Z,1.50
2019-03-25T04:47:40.597Z,1.40
2019-03-25T04:50:09.173Z,1.40
2019-03-25T04:52:37.626Z,1.40
2019-03-25T04:55:06.534Z,1.50
2019-03-25T04:57:34.992Z,1.40
2019-03-25T05:00:03.963Z,1.30
2019-03-25T05:02:32.409Z,1.20
2019-03-25T05:05:00.914Z,1.20
2019-03-25T05:07:29.380Z,1.00
2019-03-25T05:09:57.823Z,0.90
2019-03-25T05:12:26.263Z,0.80
2019-03-25T05:14:54.722Z,0.70
2019-03-25T05:17:23.164Z,0.60
2019-03-25T05:19:51.590Z,0.60
2019-03-25T05:22:20.037Z,0.50
2019-03-25T05:24:48.478Z,0.50
2019-03-25T05:27:16.931Z,0.40
2019-03-25T05:29:45.368Z,0.30
2019-03-25T05:32:13.797Z,0.30
2019-03-25T05:34:42.250Z,0.30
2019-03-25T05:37:10.706Z,0.20
2019-03-25T05:39:39.146Z,0.20
2019-03-25T05:42:07.575Z,0.20
2019-03-25T05:44:36.014Z,0.20
2019-03-25T05:47:04.451Z,0.20
2019-03-25T05:49:32.922Z,0.20
2019-03-25T05:52:01.372Z,0.30
2019-03-25T05:54:29.812Z,0.30
2019-03-25T05:57:02.774Z,0.30
2019-03-25T05:59:28.523Z,0.30
2019-03-25T06:01:57.021Z,0.30
2019-03-25T06:04:25.475Z,0.30
2019-03-25T06:06:53.919Z,0.40
2019-03-25T06:09:22.377Z,0.30
2019-03-25T06:11:50.815Z,0.30
2019-03-25T06:14:19.276Z,0.40
2019-03-25T06:16:47.727Z,0.40
2019-03-25T06:19:16.251Z,0.40
2019-03-25T06:21:44.702Z,0.40
2019-03-25T06:24:13.147Z,0.40
2019-03-25T06:26:41.582Z,0.40
2019-03-25T06:29:10.036Z,0.40
2019-03-25T06:31:38.482Z,0.40
2019-03-25T06:34:06.979Z,0.40
2019-03-25T06:36:35.497Z,0.40
2019-03-25T06:39:05.376Z,0.40
2019-03-25T06:41:33.826Z,0.40
2019-03-25T06:44:02.258Z,0.50
2019-03-25T06:46:30.727Z,0.50
2019-03-25T06:48:59.170Z,0.60
2019-03-25T06:51:27.851Z,0.50
2019-03-25T06:53:56.346Z,0.60
2019-03-25T06:56:24.785Z,0.60
2019-03-25T06:58:53.256Z,0.60
2019-03-25T07:01:21.692Z,0.60
2019-03-25T07:03:50.127Z,0.70
2019-03-25T07:06:18.566Z,0.70
2019-03-25T07:08:47.009Z,0.80
2019-03-25T07:11:15.479Z,0.80
2019-03-25T07:13:44.096Z,0.90
2019-03-25T07:16:12.541Z,1.00
2019-03-25T07:18:41.255Z,1.10
2019-03-25T07:21:09.781Z,1.20
2019-03-25T07:23:38.294Z,1.30
2019-03-25T07:26:06.756Z,1.40
2019-03-25T07:28:35.191Z,1.40
2019-03-25T07:31:04.434Z,1.40
2019-03-25T07:33:32.924Z,1.40
2019-03-25T07:36:01.440Z,1.40
2019-03-25T07:38:29.934Z,1.30
2019-03-25T07:40:58.382Z,1.30
2019-03-25T07:43:26.818Z,1.30
2019-03-25T07:45:55.259Z,1.30
2019-03-25T07:48:23.787Z,1.40
2019-03-25T07:50:52.219Z,1.40
2019-03-25T07:53:20.695Z,1.50
2019-03-25T07:55:49.131Z,1.50
2019-03-25T07:58:17.616Z,1.60
2019-03-25T08:00:46.138Z,1.60
2019-03-25T08:03:14.650Z,1.60
2019-03-25T08:05:43.074Z,1.60
2019-03-25T08:08:11.548Z,1.60
2019-03-25T08:10:40.070Z,1.60
2019-03-25T08:13:08.582Z,1.60
2019-03-25T08:15:37.076Z,1.50
2019-03-25T08:18:05.836Z,1.50
2019-03-25T08:20:34.287Z,1.50
2019-03-25T08:23:02.741Z,1.60
2019-03-25T08:25:31.173Z,1.60
2019-03-25T08:28:00.570Z,1.50
2019-03-25T08:30:29.165Z,1.50
2019-03-25T08:32:57.593Z,1.50
2019-03-25T08:35:26.040Z,1.50
2019-03-25T08:37:54.557Z,1.50
2019-03-25T08:40:23.032Z,1.50
2019-03-25T08:42:51.543Z,1.60
2019-03-25T08:45:19.987Z,1.60
2019-03-25T08:47:48.434Z,1.60
2019-03-25T08:50:17.023Z,1.60
2019-03-25T08:52:45.478Z,1.70
2019-03-25T08:55:13.919Z,1.70
2019-03-25T08:57:42.370Z,1.70
2019-03-25T09:00:11.450Z,1.70
2019-03-25T09:02:39.911Z,1.80
2019-03-25T09:05:08.682Z,1.80
2019-03-25T09:07:37.318Z,1.90
2019-03-25T09:10:08.090Z,2.00
2019-03-25T09:12:36.804Z,2.00
2019-03-25T09:15:09.474Z,1.90
2019-03-25T09:17:38.007Z,1.80
2019-03-25T09:20:08.052Z,1.60
2019-03-25T09:22:36.579Z,1.50
2019-03-25T09:25:11.088Z,1.30
2019-03-25T09:27:39.581Z,1.10
2019-03-25T09:30:09.428Z,0.80
2019-03-25T09:32:37.891Z,0.60
2019-03-25T09:35:08.713Z,0.50
2019-03-25T09:37:37.899Z,0.40
2019-03-25T09:40:09.190Z,0.30
2019-03-25T09:42:37.780Z,0.30
2019-03-25T09:45:08.253Z,0.30
2019-03-25T09:47:37.916Z,0.20
2019-03-25T09:50:08.226Z,0.20
2019-03-25T09:52:38.822Z,0.20
2019-03-25T09:55:07.881Z,0.30
2019-03-25T09:57:36.320Z,0.50
2019-03-25T10:00:10.347Z,0.70
2019-03-25T10:02:38.855Z,0.80
2019-03-25T10:05:07.766Z,0.90
2019-03-25T10:07:36.204Z,1.10
2019-03-25T10:10:06.990Z,1.20
2019-03-25T10:12:35.559Z,1.50
2019-03-25T10:15:05.271Z,1.60
2019-03-25T10:17:33.727Z,1.80
2019-03-25T10:20:02.251Z,1.90
2019-03-25T10:22:30.763Z,2.10
2019-03-25T10:24:59.205Z,2.20
2019-03-25T10:27:27.637Z,2.50
2019-03-25T10:29:56.103Z,2.60
2019-03-25T10:32:24.544Z,2.60
2019-03-25T10:34:53.037Z,2.70
2019-03-25T10:37:21.546Z,2.70
2019-03-25T10:39:50.011Z,2.70
2019-03-25T10:42:18.458Z,2.40
2019-03-25T10:44:46.899Z,2.20
2019-03-25T10:47:15.352Z,2.00
2019-03-25T10:49:43.787Z,2.10
2019-03-25T10:52:12.241Z,2.30
2019-03-25T10:54:41.603Z,2.50
2019-03-25T10:57:10.140Z,2.80
2019-03-25T10:59:38.571Z,2.70
2019-03-25T11:02:07.023Z,2.40
2019-03-25T11:04:35.472Z,2.20
2019-03-25T11:07:04.098Z,2.00
2019-03-25T11:09:32.618Z,1.80
2019-03-25T11:12:01.173Z,1.50
2019-03-25T11:14:29.601Z,1.20
2019-03-25T11:16:58.063Z,1.10
2019-03-25T11:19:26.489Z,1.10
2019-03-25T11:21:54.947Z,1.40
2019-03-25T11:24:23.635Z,1.80
2019-03-25T11:26:52.095Z,2.10
2019-03-25T11:29:20.600Z,2.40
2019-03-25T11:31:49.063Z,2.50
2019-03-25T11:34:17.492Z,2.30
2019-03-25T11:36:45.917Z,2.00
2019-03-25T11:39:14.359Z,1.60
2019-03-25T11:41:42.797Z,1.40
2019-03-25T11:44:11.230Z,1.30
2019-03-25T11:46:39.683Z,1.10
2019-03-25T11:49:08.160Z,1.10
2019-03-25T11:51:36.935Z,1.00
2019-03-25T11:54:05.460Z,1.10
2019-03-25T11:56:34.181Z,1.30
2019-03-25T11:59:03.228Z,1.50
2019-03-25T12:01:32.297Z,1.50
2019-03-25T12:04:00.885Z,1.50
2019-03-25T12:06:29.458Z,1.50
2019-03-25T12:08:57.951Z,1.70
2019-03-25T12:11:26.437Z,2.10
2019-03-25T12:13:54.931Z,2.30
2019-03-25T12:16:23.682Z,2.50
2019-03-25T12:18:53.911Z,2.90
2019-03-25T12:21:22.326Z,3.30
2019-03-25T12:23:51.148Z,3.20
2019-03-25T12:26:20.086Z,3.00
2019-03-25T12:28:49.646Z,2.40
2019-03-25T12:31:18.547Z,2.00
2019-03-25T12:33:47.005Z,1.80
2019-03-25T12:36:15.933Z,1.60
2019-03-25T12:38:44.705Z,1.60
2019-03-25T12:41:13.658Z,1.90
2019-03-25T12:43:45.762Z,2.30
2019-03-25T12:46:16.088Z,2.80
2019-03-25T12:48:44.844Z,3.10
2019-03-25T12:51:13.570Z,3.50
2019-03-25T12:53:44.376Z,3.50
2019-03-25T12:56:12.950Z,3.50
2019-03-25T12:58:41.627Z,3.40
2019-03-25T13:01:10.708Z,3.40
2019-03-25T13:03:40.796Z,3.30
2019-03-25T13:06:09.633Z,3.00
2019-03-25T13:08:38.444Z,2.80
2019-03-25T13:11:07.378Z,2.70
2019-03-25T13:13:36.351Z,3.00
2019-03-25T13:16:05.025Z,3.20
2019-03-25T13:18:33.800Z,3.30
2019-03-25T13:21:02.434Z,3.50
2019-03-25T13:23:31.200Z,4.00
2019-03-25T13:26:00.030Z,4.30
2019-03-25T13:28:28.641Z,4.80
2019-03-25T13:30:57.453Z,5.00
2019-03-25T13:33:29.255Z,4.40
2019-03-25T13:35:57.880Z,3.80
2019-03-25T13:38:27.107Z,3.40
2019-03-25T13:40:56.484Z,3.40
2019-03-25T13:43:25.886Z,3.30
2019-03-25T13:46:04.779Z,3.20
2019-03-25T13:48:24.686Z,3.10
2019-03-25T13:50:53.220Z,2.90
2019-03-25T13:53:21.686Z,2.80
2019-03-25T13:55:50.406Z,2.80
2019-03-25T13:58:19.314Z,3.00
2019-03-25T14:00:48.327Z,3.00
2019-03-25T14:03:16.808Z,2.80
2019-03-25T14:05:46.346Z,2.90
2019-03-25T14:08:14.879Z,3.10
2019-03-25T14:10:43.430Z,3.20
2019-03-25T14:13:11.876Z,3.30
2019-03-25T14:15:40.332Z,3.30
2019-03-25T14:18:08.796Z,3.20
2019-03-25T14:20:37.305Z,3.30
2019-03-25T14:23:05.765Z,3.50
2019-03-25T14:25:34.236Z,3.90
2019-03-25T14:28:02.719Z,4.20
2019-03-25T14:30:31.763Z,4.30
2019-03-25T14:33:00.217Z,4.10
2019-03-25T14:35:28.656Z,3.70
2019-03-25T14:37:57.251Z,3.40
2019-03-25T14:40:25.830Z,3.30
2019-03-25T14:42:54.429Z,3.20
2019-03-25T14:45:26.618Z,3.00
2019-03-25T14:47:53.175Z,2.80
2019-03-25T14:50:22.672Z,2.40
2019-03-25T14:52:51.120Z,1.50
2019-03-25T14:55:19.624Z,1.00
2019-03-25T14:57:48.071Z,0.80
2019-03-25T15:00:24.655Z,0.70
2019-03-25T15:02:47.275Z,0.60
2019-03-25T15:05:15.953Z,0.50
2019-03-25T15:07:44.462Z,0.50
2019-03-25T15:10:13.308Z,0.40
2019-03-25T15:12:41.755Z,0.40
2019-03-25T15:15:11.076Z,0.50
2019-03-25T15:17:39.589Z,0.50
2019-03-25T15:20:10.207Z,0.50
2019-03-25T15:22:38.800Z,0.50
2019-03-25T15:25:08.973Z,0.50
2019-03-25T15:27:37.635Z,0.50
2019-03-25T15:30:10.389Z,0.60
2019-03-25T15:32:38.918Z,0.60
2019-03-25T15:35:08.318Z,0.70
2019-03-25T15:37:37.026Z,0.70
2019-03-25T15:40:08.631Z,0.70
2019-03-25T15:42:37.174Z,0.70
2019-03-25T15:45:07.375Z,0.70
2019-03-25T15:47:35.930Z,0.70
2019-03-25T15:50:07.579Z,0.70
2019-03-25T15:52:36.029Z,0.80
2019-03-25T15:55:05.616Z,0.90
2019-03-25T15:57:34.058Z,0.90
2019-03-25T16:00:02.521Z,0.90
2019-03-25T16:02:31.040Z,0.90
2019-03-25T16:04:59.495Z,0.90
2019-03-25T16:07:27.936Z,0.90
2019-03-25T16:09:56.495Z,0.90
2019-03-25T16:12:25.005Z,0.90
2019-03-25T16:14:53.589Z,0.90
2019-03-25T16:17:22.059Z,0.90
2019-03-25T16:19:50.759Z,0.90
2019-03-25T16:22:19.249Z,0.90
2019-03-25T16:24:47.775Z,0.90
2019-03-25T16:27:16.690Z,0.90
2019-03-25T16:29:45.323Z,0.90
2019-03-25T16:32:14.045Z,0.90
2019-03-25T16:34:42.604Z,0.90
2019-03-25T16:37:11.130Z,0.90
2019-03-25T16:39:39.718Z,0.90
2019-03-25T16:42:08.245Z,1.00
2019-03-25T16:44:36.787Z,1.00
2019-03-25T16:47:05.307Z,1.00
2019-03-25T16:49:33.928Z,1.00
2019-03-25T16:52:02.448Z,1.00
2019-03-25T16:54:30.997Z,0.90
2019-03-25T16:56:59.505Z,0.90
2019-03-25T16:59:28.842Z,0.90
2019-03-25T17:01:57.321Z,0.90
2019-03-25T17:04:26.059Z,1.00
2019-03-25T17:06:54.521Z,1.10
2019-03-25T17:09:22.994Z,1.10
2019-03-25T17:11:51.431Z,1.20
2019-03-25T17:14:19.961Z,1.20
2019-03-25T17:16:48.593Z,1.20
2019-03-25T17:19:17.184Z,1.20
2019-03-25T17:21:45.798Z,1.20
2019-03-25T17:24:14.362Z,1.30
2019-03-25T17:26:43.157Z,1.30
2019-03-25T17:29:11.748Z,1.30
2019-03-25T17:31:40.215Z,1.40
2019-03-25T17:34:08.727Z,1.40
2019-03-25T17:36:37.370Z,1.30
2019-03-25T17:39:08.203Z,1.30
2019-03-25T17:41:36.666Z,1.30
2019-03-25T17:44:05.100Z,1.40
2019-03-25T17:46:33.564Z,1.30
2019-03-25T17:49:02.254Z,1.30
2019-03-25T17:51:30.701Z,1.30
2019-03-25T17:53:59.157Z,1.30
2019-03-25T17:56:28.022Z,1.20
2019-03-25T17:58:56.474Z,1.10
2019-03-25T18:01:32.162Z,1.10
2019-03-25T18:03:56.682Z,1.20
2019-03-25T18:06:25.142Z,1.20
2019-03-25T18:08:53.647Z,1.30
2019-03-25T18:11:22.971Z,1.20
2019-03-25T18:13:51.546Z,1.30
2019-03-25T18:16:20.095Z,1.30
2019-03-25T18:18:48.543Z,1.30
2019-03-25T18:21:16.995Z,1.30
2019-03-25T18:23:45.438Z,1.30
2019-03-25T18:26:13.870Z,1.30
2019-03-25T18:28:42.317Z,1.30
2019-03-25T18:31:10.782Z,1.30
2019-03-25T18:33:39.239Z,1.40
2019-03-25T18:36:07.747Z,1.40
2019-03-25T18:38:36.251Z,1.40
2019-03-25T18:41:04.952Z,1.40
2019-03-25T18:43:33.475Z,1.40
2019-03-25T18:46:01.984Z,1.40
2019-03-25T18:48:30.457Z,1.40
2019-03-25T18:50:59.038Z,1.50
2019-03-25T18:53:28.218Z,1.50
2019-03-25T18:55:56.725Z,1.50
2019-03-25T18:58:25.186Z,1.50
2019-03-25T19:00:53.796Z,1.50
2019-03-25T19:03:22.469Z,1.50
2019-03-25T19:05:51.080Z,1.50
2019-03-25T19:08:20.164Z,1.50
2019-03-25T19:10:48.610Z,1.50
2019-03-25T19:13:17.123Z,1.50
2019-03-25T19:15:45.839Z,1.50
2019-03-25T19:18:14.296Z,1.50
2019-03-25T19:20:42.791Z,1.50
2019-03-25T19:23:11.249Z,1.50
2019-03-25T19:25:39.696Z,1.60
2019-03-25T19:28:08.140Z,1.60
2019-03-25T19:30:36.671Z,1.60
2019-03-25T19:33:05.148Z,1.60
2019-03-25T19:35:33.641Z,1.70
2019-03-25T19:38:02.095Z,1.70
2019-03-25T19:40:30.561Z,1.80
2019-03-25T19:42:59.100Z,1.70
2019-03-25T19:45:27.609Z,1.70
2019-03-25T19:47:57.050Z,1.70
2019-03-25T19:50:25.483Z,1.70
2019-03-25T19:52:53.989Z,1.70
2019-03-25T19:55:22.493Z,1.80
2019-03-25T19:57:51.409Z,1.80
2019-03-25T20:00:23.043Z,1.70
2019-03-25T20:02:51.551Z,1.70
2019-03-25T20:05:19.987Z,1.70
2019-03-25T20:07:48.550Z,1.70
2019-03-25T20:10:28.153Z,1.70
2019-03-25T20:12:57.174Z,1.80
2019-03-25T20:15:25.779Z,1.70
2019-03-25T20:17:54.281Z,1.80
2019-03-25T20:20:22.787Z,1.70
2019-03-25T20:22:51.269Z,1.70
2019-03-25T20:25:19.775Z,1.70
2019-03-25T20:27:48.314Z,1.70
2019-03-25T20:30:16.882Z,1.70
2019-03-25T20:32:45.411Z,1.70
2019-03-25T20:35:14.011Z,1.70
2019-03-25T20:37:42.505Z,1.60
2019-03-25T20:40:11.243Z,1.60
2019-03-25T20:42:39.711Z,1.60
2019-03-25T20:45:08.487Z,1.60
2019-03-25T20:47:37.025Z,1.60
2019-03-25T20:50:06.307Z,1.60
2019-03-25T20:52:34.832Z,1.60
2019-03-25T20:55:03.983Z,1.60
2019-03-25T20:57:33.073Z,1.50
2019-03-25T21:00:01.570Z,1.50
2019-03-25T21:02:30.593Z,1.50
2019-03-25T21:04:59.049Z,1.60
2019-03-25T21:07:27.641Z,1.50
2019-03-25T21:09:56.084Z,1.50
2019-03-25T21:12:24.614Z,1.60
2019-03-25T21:14:53.068Z,1.50
2019-03-25T21:17:21.518Z,1.50
2019-03-25T21:19:49.989Z,1.60
2019-03-25T21:22:18.423Z,1.50
2019-03-25T21:24:46.870Z,1.50
2019-03-25T21:27:15.336Z,1.60
2019-03-25T21:29:45.951Z,1.60
2019-03-25T21:32:15.364Z,1.60
2019-03-25T21:34:43.876Z,1.50
2019-03-25T21:37:12.382Z,1.50
2019-03-25T21:39:40.853Z,1.60
2019-03-25T21:42:09.383Z,1.60
2019-03-25T21:44:37.870Z,1.60
2019-03-25T21:47:06.342Z,1.60
2019-03-25T21:49:35.890Z,1.60
2019-03-25T21:52:04.656Z,1.60
2019-03-25T21:54:33.233Z,1.60
2019-03-25T21:57:01.967Z,1.60
2019-03-25T21:59:30.511Z,1.60
2019-03-25T22:01:59.093Z,1.60
2019-03-25T22:04:27.593Z,1.60
2019-03-25T22:06:56.037Z,1.60
2019-03-25T22:09:24.535Z,1.60
2019-03-25T22:11:53.033Z,1.60
2019-03-25T22:14:21.487Z,1.60
2019-03-25T22:16:50.012Z,1.60
2019-03-25T22:19:18.538Z,1.60
2019-03-25T22:21:47.109Z,1.60
2019-03-25T22:24:15.579Z,1.60
2019-03-25T22:26:44.160Z,1.60
2019-03-25T22:29:12.643Z,1.60
2019-03-25T22:31:43.196Z,1.60
2019-03-25T22:34:11.779Z,1.50
2019-03-25T22:36:40.298Z,1.60
2019-03-25T22:39:08.880Z,1.60
2019-03-25T22:41:37.390Z,1.60
2019-03-25T22:44:05.998Z,1.60
2019-03-25T22:46:34.520Z,1.60
2019-03-25T22:49:03.155Z,1.60
2019-03-25T22:51:33.572Z,1.60
2019-03-25T22:54:02.071Z,1.60
2019-03-25T22:56:31.485Z,1.60
2019-03-25T22:59:00.004Z,1.60
2019-03-25T23:04:02.979Z,1.50
2019-03-25T23:06:31.478Z,1.50
2019-03-25T23:08:59.974Z,1.50
2019-03-25T23:11:29.385Z,1.50
2019-03-25T23:13:57.915Z,1.50
2019-03-25T23:16:26.424Z,1.60
2019-03-25T23:18:55.030Z,1.50
2019-03-25T23:21:23.576Z,1.50
2019-03-25T23:23:52.118Z,1.50
2019-03-25T23:26:21.511Z,1.50
2019-03-25T23:28:50.084Z,1.50
2019-03-25T23:31:19.054Z,1.60
2019-03-25T23:33:52.327Z,1.60
2019-03-25T23:36:17.820Z,1.60
2019-03-25T23:38:46.401Z,1.50
2019-03-25T23:41:14.899Z,1.50
2019-03-25T23:43:43.384Z,1.40
2019-03-25T23:46:11.964Z,1.40
2019-03-25T23:48:40.566Z,1.50
2019-03-25T23:51:09.127Z,1.40
2019-03-25T23:53:37.631Z,1.50
2019-03-25T23:56:07.261Z,1.50
2019-03-25T23:58:36.605Z,1.40
